sensor_id;sensor_type;location;lat;lon;timestamp;temperature;humidity
35246;DHT22;21379;50.962;6.960;2022-12-07T00:01:21;5.50;99.90
35246;DHT22;21379;50.962;6.960;2022-12-07T00:03:50;5.50;99.90
35246;DHT22;21379;50.962;6.960;2022-12-07T00:06:18;5.50;99.90
35246;DHT22;21379;50.962;6.960;2022-12-07T00:08:47;5.50;99.90
35246;DHT22;21379;50.962;6.960;2022-12-07T00:11:15;5.60;99.90
35246;DHT22;21379;50.962;6.960;2022-12-07T00:13:43;5.60;99.90
35246;DHT22;21379;50.962;6.960;2022-12-07T00:16:12;5.60;99.90
35246;DHT22;21379;50.962;6.960;2022-12-07T00:18:40;5.60;99.90
35246;DHT22;21379;50.962;6.960;2022-12-07T00:21:10;5.60;99.90
35246;DHT22;21379;50.962;6.960;2022-12-07T00:23:38;5.60;99.90
35246;DHT22;21379;50.962;6.960;2022-12-07T00:26:08;5.60;99.90
35246;DHT22;21379;50.962;6.960;2022-12-07T00:28:35;5.60;99.90
35246;DHT22;21379;50.962;6.960;2022-12-07T00:31:03;5.60;99.90
35246;DHT22;21379;50.962;6.960;2022-12-07T00:33:31;5.60;99.90
35246;DHT22;21379;50.962;6.960;2022-12-07T00:35:58;5.50;99.90
35246;DHT22;21379;50.962;6.960;2022-12-07T00:38:28;5.60;99.90
35246;DHT22;21379;50.962;6.960;2022-12-07T00:40:56;5.60;99.90
35246;DHT22;21379;50.962;6.960;2022-12-07T00:43:25;5.60;99.90
35246;DHT22;21379;50.962;6.960;2022-12-07T00:45:52;5.60;99.90
35246;DHT22;21379;50.962;6.960;2022-12-07T00:48:19;5.60;99.90
35246;DHT22;21379;50.962;6.960;2022-12-07T00:50:46;5.60;99.90
35246;DHT22;21379;50.962;6.960;2022-12-07T00:53:13;5.60;99.90
35246;DHT22;21379;50.962;6.960;2022-12-07T00:55:40;5.60;99.90
35246;DHT22;21379;50.962;6.960;2022-12-07T00:58:07;5.60;99.90
35246;DHT22;21379;50.962;6.960;2022-12-07T01:00:37;5.60;99.90
35246;DHT22;21379;50.962;6.960;2022-12-07T01:03:04;5.60;99.90
35246;DHT22;21379;50.962;6.960;2022-12-07T01:05:31;5.70;99.90
35246;DHT22;21379;50.962;6.960;2022-12-07T01:07:58;5.60;99.90
35246;DHT22;21379;50.962;6.960;2022-12-07T01:10:25;5.60;99.90
35246;DHT22;21379;50.962;6.960;2022-12-07T01:12:52;5.60;99.90
35246;DHT22;21379;50.962;6.960;2022-12-07T01:15:19;5.60;99.90
35246;DHT22;21379;50.962;6.960;2022-12-07T01:17:47;5.60;99.90
35246;DHT22;21379;50.962;6.960;2022-12-07T01:20:14;5.60;99.90
35246;DHT22;21379;50.962;6.960;2022-12-07T01:22:42;5.60;99.90
35246;DHT22;21379;50.962;6.960;2022-12-07T01:25:11;5.60;99.90
35246;DHT22;21379;50.962;6.960;2022-12-07T01:27:37;5.70;99.90
35246;DHT22;21379;50.962;6.960;2022-12-07T01:30:06;5.70;99.90
35246;DHT22;21379;50.962;6.960;2022-12-07T01:32:33;5.70;99.90
35246;DHT22;21379;50.962;6.960;2022-12-07T01:35:02;5.70;99.90
35246;DHT22;21379;50.962;6.960;2022-12-07T01:37:34;5.70;99.90
35246;DHT22;21379;50.962;6.960;2022-12-07T01:40:01;5.70;99.90
35246;DHT22;21379;50.962;6.960;2022-12-07T01:42:28;5.60;99.90
35246;DHT22;21379;50.962;6.960;2022-12-07T01:47:56;5.70;99.90
35246;DHT22;21379;50.962;6.960;2022-12-07T01:50:27;5.60;99.90
35246;DHT22;21379;50.962;6.960;2022-12-07T01:52:58;5.60;99.90
35246;DHT22;21379;50.962;6.960;2022-12-07T01:55:27;5.60;99.90
35246;DHT22;21379;50.962;6.960;2022-12-07T01:57:54;5.60;99.90
35246;DHT22;21379;50.962;6.960;2022-12-07T02:00:22;5.60;99.90
35246;DHT22;21379;50.962;6.960;2022-12-07T02:02:53;5.60;99.90
35246;DHT22;21379;50.962;6.960;2022-12-07T02:05:23;5.60;99.90
35246;DHT22;21379;50.962;6.960;2022-12-07T02:07:55;5.60;99.90
35246;DHT22;21379;50.962;6.960;2022-12-07T02:10:24;5.60;99.90
35246;DHT22;21379;50.962;6.960;2022-12-07T02:12:53;5.50;99.90
35246;DHT22;21379;50.962;6.960;2022-12-07T02:15:22;5.50;99.90
35246;DHT22;21379;50.962;6.960;2022-12-07T02:17:58;5.50;99.90
35246;DHT22;21379;50.962;6.960;2022-12-07T02:20:29;5.60;99.90
35246;DHT22;21379;50.962;6.960;2022-12-07T02:23:27;5.50;99.90
35246;DHT22;21379;50.962;6.960;2022-12-07T02:26:13;5.50;99.90
35246;DHT22;21379;50.962;6.960;2022-12-07T02:29:10;5.50;99.90
35246;DHT22;21379;50.962;6.960;2022-12-07T02:31:44;5.50;99.90
35246;DHT22;21379;50.962;6.960;2022-12-07T02:34:19;5.50;99.90
35246;DHT22;21379;50.962;6.960;2022-12-07T02:36:52;5.50;99.90
35246;DHT22;21379;50.962;6.960;2022-12-07T02:39:26;5.50;99.90
35246;DHT22;21379;50.962;6.960;2022-12-07T02:41:57;5.50;99.90
35246;DHT22;21379;50.962;6.960;2022-12-07T02:44:27;5.60;99.90
35246;DHT22;21379;50.962;6.960;2022-12-07T02:46:57;5.60;99.90
35246;DHT22;21379;50.962;6.960;2022-12-07T02:49:26;5.50;99.90
35246;DHT22;21379;50.962;6.960;2022-12-07T02:51:53;5.50;99.90
35246;DHT22;21379;50.962;6.960;2022-12-07T02:54:21;5.50;99.90
35246;DHT22;21379;50.962;6.960;2022-12-07T02:56:50;5.50;99.90
35246;DHT22;21379;50.962;6.960;2022-12-07T02:59:30;5.50;99.90
35246;DHT22;21379;50.962;6.960;2022-12-07T03:02:07;5.50;99.90
35246;DHT22;21379;50.962;6.960;2022-12-07T03:04:43;5.50;99.90
35246;DHT22;21379;50.962;6.960;2022-12-07T03:07:24;5.50;99.90
35246;DHT22;21379;50.962;6.960;2022-12-07T03:09:57;5.50;99.90
35246;DHT22;21379;50.962;6.960;2022-12-07T03:12:30;5.50;99.90
35246;DHT22;21379;50.962;6.960;2022-12-07T03:15:02;5.50;99.90
35246;DHT22;21379;50.962;6.960;2022-12-07T03:17:34;5.50;99.90
35246;DHT22;21379;50.962;6.960;2022-12-07T03:20:05;5.50;99.90
35246;DHT22;21379;50.962;6.960;2022-12-07T03:22:35;5.50;99.90
35246;DHT22;21379;50.962;6.960;2022-12-07T03:25:07;5.50;99.90
35246;DHT22;21379;50.962;6.960;2022-12-07T03:27:39;5.50;99.90
35246;DHT22;21379;50.962;6.960;2022-12-07T03:30:13;5.50;99.90
35246;DHT22;21379;50.962;6.960;2022-12-07T03:32:44;5.50;99.90
35246;DHT22;21379;50.962;6.960;2022-12-07T03:35:14;5.50;99.90
35246;DHT22;21379;50.962;6.960;2022-12-07T03:37:45;5.50;99.90
35246;DHT22;21379;50.962;6.960;2022-12-07T03:40:20;5.50;99.90
35246;DHT22;21379;50.962;6.960;2022-12-07T03:42:50;5.50;99.90
35246;DHT22;21379;50.962;6.960;2022-12-07T03:45:21;5.50;99.90
35246;DHT22;21379;50.962;6.960;2022-12-07T03:47:57;5.50;99.90
35246;DHT22;21379;50.962;6.960;2022-12-07T03:50:31;5.50;99.90
35246;DHT22;21379;50.962;6.960;2022-12-07T03:53:02;5.50;99.90
35246;DHT22;21379;50.962;6.960;2022-12-07T03:55:33;5.50;99.90
35246;DHT22;21379;50.962;6.960;2022-12-07T03:58:04;5.50;99.90
35246;DHT22;21379;50.962;6.960;2022-12-07T04:00:33;5.50;99.90
35246;DHT22;21379;50.962;6.960;2022-12-07T04:03:00;5.50;99.90
35246;DHT22;21379;50.962;6.960;2022-12-07T04:05:26;5.40;99.90
35246;DHT22;21379;50.962;6.960;2022-12-07T04:07:54;5.50;99.90
35246;DHT22;21379;50.962;6.960;2022-12-07T04:10:21;5.40;99.90
35246;DHT22;21379;50.962;6.960;2022-12-07T04:12:47;5.40;99.90
35246;DHT22;21379;50.962;6.960;2022-12-07T04:15:14;5.40;99.90
35246;DHT22;21379;50.962;6.960;2022-12-07T04:17:43;5.40;99.90
35246;DHT22;21379;50.962;6.960;2022-12-07T04:20:11;5.50;99.90
35246;DHT22;21379;50.962;6.960;2022-12-07T04:22:38;5.50;99.90
35246;DHT22;21379;50.962;6.960;2022-12-07T04:25:05;5.50;99.90
35246;DHT22;21379;50.962;6.960;2022-12-07T04:27:32;5.50;99.90
35246;DHT22;21379;50.962;6.960;2022-12-07T04:29:59;5.50;99.90
35246;DHT22;21379;50.962;6.960;2022-12-07T04:32:26;5.50;99.90
35246;DHT22;21379;50.962;6.960;2022-12-07T04:34:54;5.50;99.90
35246;DHT22;21379;50.962;6.960;2022-12-07T04:37:21;5.40;99.90
35246;DHT22;21379;50.962;6.960;2022-12-07T04:39:48;5.40;99.90
35246;DHT22;21379;50.962;6.960;2022-12-07T04:42:15;5.40;99.90
35246;DHT22;21379;50.962;6.960;2022-12-07T04:44:42;5.40;99.90
35246;DHT22;21379;50.962;6.960;2022-12-07T04:47:08;5.40;99.90
35246;DHT22;21379;50.962;6.960;2022-12-07T04:49:35;5.40;99.90
35246;DHT22;21379;50.962;6.960;2022-12-07T04:52:04;5.40;99.90
35246;DHT22;21379;50.962;6.960;2022-12-07T04:54:31;5.40;99.90
35246;DHT22;21379;50.962;6.960;2022-12-07T04:56:57;5.40;99.90
35246;DHT22;21379;50.962;6.960;2022-12-07T04:59:24;5.40;99.90
35246;DHT22;21379;50.962;6.960;2022-12-07T05:01:51;5.40;99.90
35246;DHT22;21379;50.962;6.960;2022-12-07T05:04:18;5.40;99.90
35246;DHT22;21379;50.962;6.960;2022-12-07T05:06:45;5.40;99.90
35246;DHT22;21379;50.962;6.960;2022-12-07T05:09:13;5.40;99.90
35246;DHT22;21379;50.962;6.960;2022-12-07T05:11:40;5.40;99.90
35246;DHT22;21379;50.962;6.960;2022-12-07T05:14:10;5.40;99.90
35246;DHT22;21379;50.962;6.960;2022-12-07T05:16:37;5.40;99.90
35246;DHT22;21379;50.962;6.960;2022-12-07T05:19:05;5.40;99.90
35246;DHT22;21379;50.962;6.960;2022-12-07T05:21:32;5.40;99.90
35246;DHT22;21379;50.962;6.960;2022-12-07T05:23:59;5.40;99.90
35246;DHT22;21379;50.962;6.960;2022-12-07T05:26:27;5.40;99.90
35246;DHT22;21379;50.962;6.960;2022-12-07T05:28:55;5.40;99.90
35246;DHT22;21379;50.962;6.960;2022-12-07T05:31:23;5.40;99.90
35246;DHT22;21379;50.962;6.960;2022-12-07T05:33:50;5.40;99.90
35246;DHT22;21379;50.962;6.960;2022-12-07T05:36:17;5.40;99.90
35246;DHT22;21379;50.962;6.960;2022-12-07T05:38:44;5.40;99.90
35246;DHT22;21379;50.962;6.960;2022-12-07T05:41:14;5.40;99.90
35246;DHT22;21379;50.962;6.960;2022-12-07T05:43:56;5.40;99.90
35246;DHT22;21379;50.962;6.960;2022-12-07T05:46:23;5.40;99.90
35246;DHT22;21379;50.962;6.960;2022-12-07T05:48:50;5.40;99.90
35246;DHT22;21379;50.962;6.960;2022-12-07T05:51:17;5.40;99.90
35246;DHT22;21379;50.962;6.960;2022-12-07T05:53:44;5.40;99.90
35246;DHT22;21379;50.962;6.960;2022-12-07T05:56:11;5.30;99.90
35246;DHT22;21379;50.962;6.960;2022-12-07T05:58:38;5.30;99.90
35246;DHT22;21379;50.962;6.960;2022-12-07T06:01:24;5.20;99.90
35246;DHT22;21379;50.962;6.960;2022-12-07T06:03:50;5.20;99.90
35246;DHT22;21379;50.962;6.960;2022-12-07T06:06:17;5.20;99.90
35246;DHT22;21379;50.962;6.960;2022-12-07T06:08:44;5.20;99.90
35246;DHT22;21379;50.962;6.960;2022-12-07T06:11:11;5.20;99.90
35246;DHT22;21379;50.962;6.960;2022-12-07T06:13:55;5.10;99.90
35246;DHT22;21379;50.962;6.960;2022-12-07T06:16:23;5.10;99.90
35246;DHT22;21379;50.962;6.960;2022-12-07T06:18:50;5.10;99.90
35246;DHT22;21379;50.962;6.960;2022-12-07T06:21:17;5.00;99.90
35246;DHT22;21379;50.962;6.960;2022-12-07T06:23:43;5.00;99.90
35246;DHT22;21379;50.962;6.960;2022-12-07T06:26:10;4.90;99.90
35246;DHT22;21379;50.962;6.960;2022-12-07T06:28:37;5.00;99.90
35246;DHT22;21379;50.962;6.960;2022-12-07T06:31:04;4.90;99.90
35246;DHT22;21379;50.962;6.960;2022-12-07T06:33:32;4.90;99.90
35246;DHT22;21379;50.962;6.960;2022-12-07T06:35:59;4.90;99.90
35246;DHT22;21379;50.962;6.960;2022-12-07T06:38:26;4.90;99.90
35246;DHT22;21379;50.962;6.960;2022-12-07T06:40:53;4.90;99.90
35246;DHT22;21379;50.962;6.960;2022-12-07T06:43:20;5.00;99.90
35246;DHT22;21379;50.962;6.960;2022-12-07T06:45:47;5.00;99.90
35246;DHT22;21379;50.962;6.960;2022-12-07T06:48:13;5.00;99.90
35246;DHT22;21379;50.962;6.960;2022-12-07T06:50:44;5.10;99.90
35246;DHT22;21379;50.962;6.960;2022-12-07T06:53:11;5.10;99.90
35246;DHT22;21379;50.962;6.960;2022-12-07T06:55:37;5.10;99.90
35246;DHT22;21379;50.962;6.960;2022-12-07T06:58:04;5.10;99.90
35246;DHT22;21379;50.962;6.960;2022-12-07T07:00:31;5.10;99.90
35246;DHT22;21379;50.962;6.960;2022-12-07T07:03:00;5.10;99.90
35246;DHT22;21379;50.962;6.960;2022-12-07T07:05:27;5.10;99.90
35246;DHT22;21379;50.962;6.960;2022-12-07T07:07:55;5.10;99.90
35246;DHT22;21379;50.962;6.960;2022-12-07T07:10:22;5.10;99.90
35246;DHT22;21379;50.962;6.960;2022-12-07T07:12:49;5.10;99.90
35246;DHT22;21379;50.962;6.960;2022-12-07T07:15:16;5.10;99.90
35246;DHT22;21379;50.962;6.960;2022-12-07T07:17:42;5.00;99.90
35246;DHT22;21379;50.962;6.960;2022-12-07T07:20:10;5.10;99.90
35246;DHT22;21379;50.962;6.960;2022-12-07T07:22:37;5.10;99.90
35246;DHT22;21379;50.962;6.960;2022-12-07T07:25:06;5.10;99.90
35246;DHT22;21379;50.962;6.960;2022-12-07T07:27:33;5.20;99.90
35246;DHT22;21379;50.962;6.960;2022-12-07T07:30:00;5.20;99.90
35246;DHT22;21379;50.962;6.960;2022-12-07T07:32:26;5.20;99.90
35246;DHT22;21379;50.962;6.960;2022-12-07T07:34:53;5.20;99.90
35246;DHT22;21379;50.962;6.960;2022-12-07T07:37:20;5.10;99.90
35246;DHT22;21379;50.962;6.960;2022-12-07T07:39:47;5.20;99.90
35246;DHT22;21379;50.962;6.960;2022-12-07T07:42:15;5.20;99.90
35246;DHT22;21379;50.962;6.960;2022-12-07T07:44:42;5.20;99.90
35246;DHT22;21379;50.962;6.960;2022-12-07T07:47:09;5.20;99.90
35246;DHT22;21379;50.962;6.960;2022-12-07T07:49:35;5.20;99.90
35246;DHT22;21379;50.962;6.960;2022-12-07T07:52:02;5.30;99.90
35246;DHT22;21379;50.962;6.960;2022-12-07T07:54:29;5.30;99.90
35246;DHT22;21379;50.962;6.960;2022-12-07T07:56:56;5.30;99.90
35246;DHT22;21379;50.962;6.960;2022-12-07T07:59:24;5.30;99.90
35246;DHT22;21379;50.962;6.960;2022-12-07T08:01:51;5.30;99.90
35246;DHT22;21379;50.962;6.960;2022-12-07T08:04:18;5.30;99.90
35246;DHT22;21379;50.962;6.960;2022-12-07T08:06:45;5.30;99.90
35246;DHT22;21379;50.962;6.960;2022-12-07T08:09:12;5.30;99.90
35246;DHT22;21379;50.962;6.960;2022-12-07T08:11:39;5.30;99.90
35246;DHT22;21379;50.962;6.960;2022-12-07T08:14:05;5.30;99.90
35246;DHT22;21379;50.962;6.960;2022-12-07T08:16:33;5.40;99.90
35246;DHT22;21379;50.962;6.960;2022-12-07T08:19:00;5.40;99.90
35246;DHT22;21379;50.962;6.960;2022-12-07T08:21:28;5.30;99.90
35246;DHT22;21379;50.962;6.960;2022-12-07T08:23:56;5.30;99.90
35246;DHT22;21379;50.962;6.960;2022-12-07T08:26:23;5.30;99.90
35246;DHT22;21379;50.962;6.960;2022-12-07T08:28:50;5.40;99.90
35246;DHT22;21379;50.962;6.960;2022-12-07T08:31:18;5.40;99.90
35246;DHT22;21379;50.962;6.960;2022-12-07T08:33:47;5.40;99.90
35246;DHT22;21379;50.962;6.960;2022-12-07T08:36:14;5.40;99.90
35246;DHT22;21379;50.962;6.960;2022-12-07T08:38:41;5.50;99.90
35246;DHT22;21379;50.962;6.960;2022-12-07T08:41:08;5.40;99.90
35246;DHT22;21379;50.962;6.960;2022-12-07T08:43:36;5.50;99.90
35246;DHT22;21379;50.962;6.960;2022-12-07T08:46:07;5.50;99.90
35246;DHT22;21379;50.962;6.960;2022-12-07T08:48:36;5.50;99.90
35246;DHT22;21379;50.962;6.960;2022-12-07T08:51:06;5.60;99.90
35246;DHT22;21379;50.962;6.960;2022-12-07T08:53:33;5.60;99.90
35246;DHT22;21379;50.962;6.960;2022-12-07T08:56:01;5.60;99.90
35246;DHT22;21379;50.962;6.960;2022-12-07T08:58:28;5.70;99.90
35246;DHT22;21379;50.962;6.960;2022-12-07T09:00:55;5.70;99.90
35246;DHT22;21379;50.962;6.960;2022-12-07T09:03:22;5.70;99.90
35246;DHT22;21379;50.962;6.960;2022-12-07T09:05:48;5.60;99.90
35246;DHT22;21379;50.962;6.960;2022-12-07T09:08:17;5.70;99.90
35246;DHT22;21379;50.962;6.960;2022-12-07T09:10:44;5.70;99.90
35246;DHT22;21379;50.962;6.960;2022-12-07T09:13:10;5.70;99.90
35246;DHT22;21379;50.962;6.960;2022-12-07T09:15:37;5.70;99.90
35246;DHT22;21379;50.962;6.960;2022-12-07T09:18:04;5.80;99.90
35246;DHT22;21379;50.962;6.960;2022-12-07T09:20:31;5.80;99.90
35246;DHT22;21379;50.962;6.960;2022-12-07T09:22:58;5.80;99.90
35246;DHT22;21379;50.962;6.960;2022-12-07T09:25:26;5.80;99.90
35246;DHT22;21379;50.962;6.960;2022-12-07T09:27:56;5.80;99.90
35246;DHT22;21379;50.962;6.960;2022-12-07T09:30:23;5.90;99.90
35246;DHT22;21379;50.962;6.960;2022-12-07T09:32:50;5.90;99.90
35246;DHT22;21379;50.962;6.960;2022-12-07T09:35:16;6.00;99.90
35246;DHT22;21379;50.962;6.960;2022-12-07T09:37:43;5.90;99.90
35246;DHT22;21379;50.962;6.960;2022-12-07T09:40:11;5.90;99.90
35246;DHT22;21379;50.962;6.960;2022-12-07T09:42:43;5.90;99.90
35246;DHT22;21379;50.962;6.960;2022-12-07T09:45:15;6.00;99.90
35246;DHT22;21379;50.962;6.960;2022-12-07T09:47:43;6.10;99.90
35246;DHT22;21379;50.962;6.960;2022-12-07T09:50:14;6.20;99.90
35246;DHT22;21379;50.962;6.960;2022-12-07T09:52:43;6.30;99.90
35246;DHT22;21379;50.962;6.960;2022-12-07T09:55:13;6.20;99.90
35246;DHT22;21379;50.962;6.960;2022-12-07T09:57:42;6.40;99.90
35246;DHT22;21379;50.962;6.960;2022-12-07T10:00:13;6.30;99.90
35246;DHT22;21379;50.962;6.960;2022-12-07T10:02:42;6.40;99.90
35246;DHT22;21379;50.962;6.960;2022-12-07T10:05:13;6.40;99.90
35246;DHT22;21379;50.962;6.960;2022-12-07T10:07:40;6.50;99.90
35246;DHT22;21379;50.962;6.960;2022-12-07T10:10:14;6.40;99.90
35246;DHT22;21379;50.962;6.960;2022-12-07T10:12:57;6.30;99.90
35246;DHT22;21379;50.962;6.960;2022-12-07T10:15:41;6.30;99.90
35246;DHT22;21379;50.962;6.960;2022-12-07T10:18:18;6.30;99.90
35246;DHT22;21379;50.962;6.960;2022-12-07T10:20:46;6.30;99.90
35246;DHT22;21379;50.962;6.960;2022-12-07T10:23:15;6.30;99.90
35246;DHT22;21379;50.962;6.960;2022-12-07T10:25:43;6.40;99.90
35246;DHT22;21379;50.962;6.960;2022-12-07T10:28:14;6.40;99.90
35246;DHT22;21379;50.962;6.960;2022-12-07T10:30:51;6.40;99.90
35246;DHT22;21379;50.962;6.960;2022-12-07T10:33:29;6.40;99.90
35246;DHT22;21379;50.962;6.960;2022-12-07T10:35:56;6.40;99.90
35246;DHT22;21379;50.962;6.960;2022-12-07T10:38:25;6.50;99.90
35246;DHT22;21379;50.962;6.960;2022-12-07T10:41:03;6.50;99.90
35246;DHT22;21379;50.962;6.960;2022-12-07T10:43:32;6.50;99.90
35246;DHT22;21379;50.962;6.960;2022-12-07T10:48:59;6.50;99.90
35246;DHT22;21379;50.962;6.960;2022-12-07T10:51:34;6.60;99.90
35246;DHT22;21379;50.962;6.960;2022-12-07T10:54:10;6.50;99.90
35246;DHT22;21379;50.962;6.960;2022-12-07T10:56:52;6.60;99.90
35246;DHT22;21379;50.962;6.960;2022-12-07T10:59:38;6.50;99.90
35246;DHT22;21379;50.962;6.960;2022-12-07T11:02:24;6.60;99.90
35246;DHT22;21379;50.962;6.960;2022-12-07T11:05:02;6.60;99.90
35246;DHT22;21379;50.962;6.960;2022-12-07T11:07:38;6.60;99.90
35246;DHT22;21379;50.962;6.960;2022-12-07T11:10:13;6.60;99.90
35246;DHT22;21379;50.962;6.960;2022-12-07T11:13:01;6.60;99.90
35246;DHT22;21379;50.962;6.960;2022-12-07T11:15:40;6.60;99.90
35246;DHT22;21379;50.962;6.960;2022-12-07T11:18:18;6.60;99.90
35246;DHT22;21379;50.962;6.960;2022-12-07T11:20:52;6.80;99.90
35246;DHT22;21379;50.962;6.960;2022-12-07T11:23:27;6.70;99.90
35246;DHT22;21379;50.962;6.960;2022-12-07T11:26:02;6.80;99.90
35246;DHT22;21379;50.962;6.960;2022-12-07T11:28:40;6.90;99.90
35246;DHT22;21379;50.962;6.960;2022-12-07T11:31:20;6.80;99.90
35246;DHT22;21379;50.962;6.960;2022-12-07T11:33:53;6.80;99.90
35246;DHT22;21379;50.962;6.960;2022-12-07T11:36:36;6.80;99.90
35246;DHT22;21379;50.962;6.960;2022-12-07T11:39:07;6.80;99.90
35246;DHT22;21379;50.962;6.960;2022-12-07T11:41:38;6.80;99.90
35246;DHT22;21379;50.962;6.960;2022-12-07T11:44:08;6.80;99.90
35246;DHT22;21379;50.962;6.960;2022-12-07T11:46:47;6.90;99.90
35246;DHT22;21379;50.962;6.960;2022-12-07T11:49:21;6.80;99.90
35246;DHT22;21379;50.962;6.960;2022-12-07T11:51:53;6.90;99.90
35246;DHT22;21379;50.962;6.960;2022-12-07T11:54:26;6.90;99.90
35246;DHT22;21379;50.962;6.960;2022-12-07T11:56:54;6.90;99.90
35246;DHT22;21379;50.962;6.960;2022-12-07T11:59:27;6.90;99.90
35246;DHT22;21379;50.962;6.960;2022-12-07T12:02:12;6.90;99.90
35246;DHT22;21379;50.962;6.960;2022-12-07T12:04:49;7.10;99.90
35246;DHT22;21379;50.962;6.960;2022-12-07T12:07:22;7.10;99.90
35246;DHT22;21379;50.962;6.960;2022-12-07T12:09:51;7.20;99.90
35246;DHT22;21379;50.962;6.960;2022-12-07T12:15:18;7.30;99.90
35246;DHT22;21379;50.962;6.960;2022-12-07T12:20:43;7.20;99.90
35246;DHT22;21379;50.962;6.960;2022-12-07T12:23:12;7.10;99.90
35246;DHT22;21379;50.962;6.960;2022-12-07T12:25:42;7.10;99.90
35246;DHT22;21379;50.962;6.960;2022-12-07T12:28:22;7.10;99.90
35246;DHT22;21379;50.962;6.960;2022-12-07T12:31:06;7.00;99.90
35246;DHT22;21379;50.962;6.960;2022-12-07T12:33:36;7.00;99.90
35246;DHT22;21379;50.962;6.960;2022-12-07T12:36:24;7.00;99.90
35246;DHT22;21379;50.962;6.960;2022-12-07T12:39:08;7.00;99.90
35246;DHT22;21379;50.962;6.960;2022-12-07T12:41:56;7.00;99.90
35246;DHT22;21379;50.962;6.960;2022-12-07T12:45:02;7.00;99.90
35246;DHT22;21379;50.962;6.960;2022-12-07T12:47:52;7.00;99.90
35246;DHT22;21379;50.962;6.960;2022-12-07T12:50:24;6.90;99.90
35246;DHT22;21379;50.962;6.960;2022-12-07T12:52:57;6.90;99.90
35246;DHT22;21379;50.962;6.960;2022-12-07T12:55:54;7.00;99.90
35246;DHT22;21379;50.962;6.960;2022-12-07T12:58:37;7.10;99.90
35246;DHT22;21379;50.962;6.960;2022-12-07T13:04:25;7.00;99.90
35246;DHT22;21379;50.962;6.960;2022-12-07T13:06:55;6.90;99.90
35246;DHT22;21379;50.962;6.960;2022-12-07T13:09:24;6.80;99.90
35246;DHT22;21379;50.962;6.960;2022-12-07T13:12:00;6.80;99.90
35246;DHT22;21379;50.962;6.960;2022-12-07T13:14:53;6.80;99.90
35246;DHT22;21379;50.962;6.960;2022-12-07T13:20:49;6.70;99.90
35246;DHT22;21379;50.962;6.960;2022-12-07T13:23:24;6.80;99.90
35246;DHT22;21379;50.962;6.960;2022-12-07T13:28:45;6.80;99.90
35246;DHT22;21379;50.962;6.960;2022-12-07T13:31:30;6.80;99.90
35246;DHT22;21379;50.962;6.960;2022-12-07T13:33:57;6.80;99.90
35246;DHT22;21379;50.962;6.960;2022-12-07T13:36:26;6.80;99.90
35246;DHT22;21379;50.962;6.960;2022-12-07T13:38:57;6.80;99.90
35246;DHT22;21379;50.962;6.960;2022-12-07T13:41:26;6.80;99.90
35246;DHT22;21379;50.962;6.960;2022-12-07T13:44:00;6.90;99.90
35246;DHT22;21379;50.962;6.960;2022-12-07T13:46:31;6.90;99.90
35246;DHT22;21379;50.962;6.960;2022-12-07T13:49:00;7.00;99.90
35246;DHT22;21379;50.962;6.960;2022-12-07T13:51:27;6.90;99.90
35246;DHT22;21379;50.962;6.960;2022-12-07T13:54:01;7.00;99.90
35246;DHT22;21379;50.962;6.960;2022-12-07T13:56:32;6.90;99.90
35246;DHT22;21379;50.962;6.960;2022-12-07T13:59:00;6.90;99.90
35246;DHT22;21379;50.962;6.960;2022-12-07T14:01:28;7.00;99.90
35246;DHT22;21379;50.962;6.960;2022-12-07T14:04:17;7.00;99.90
35246;DHT22;21379;50.962;6.960;2022-12-07T14:06:48;6.90;99.90
35246;DHT22;21379;50.962;6.960;2022-12-07T14:09:20;6.90;99.90
35246;DHT22;21379;50.962;6.960;2022-12-07T14:11:49;6.90;99.90
35246;DHT22;21379;50.962;6.960;2022-12-07T14:14:19;6.90;99.90
35246;DHT22;21379;50.962;6.960;2022-12-07T14:16:59;6.80;99.90
35246;DHT22;21379;50.962;6.960;2022-12-07T14:19:42;6.80;99.90
35246;DHT22;21379;50.962;6.960;2022-12-07T14:22:31;6.70;99.90
35246;DHT22;21379;50.962;6.960;2022-12-07T14:25:01;6.70;99.90
35246;DHT22;21379;50.962;6.960;2022-12-07T14:27:33;6.70;99.90
35246;DHT22;21379;50.962;6.960;2022-12-07T14:30:02;6.60;99.90
35246;DHT22;21379;50.962;6.960;2022-12-07T14:32:29;6.60;99.90
35246;DHT22;21379;50.962;6.960;2022-12-07T14:35:01;6.60;99.90
35246;DHT22;21379;50.962;6.960;2022-12-07T14:37:30;6.60;99.90
35246;DHT22;21379;50.962;6.960;2022-12-07T14:39:57;6.60;99.90
35246;DHT22;21379;50.962;6.960;2022-12-07T14:42:28;6.60;99.90
35246;DHT22;21379;50.962;6.960;2022-12-07T14:44:55;6.60;99.90
35246;DHT22;21379;50.962;6.960;2022-12-07T14:47:24;6.60;99.90
35246;DHT22;21379;50.962;6.960;2022-12-07T14:49:52;6.60;99.90
35246;DHT22;21379;50.962;6.960;2022-12-07T14:52:20;6.70;99.90
35246;DHT22;21379;50.962;6.960;2022-12-07T14:54:48;6.60;99.90
35246;DHT22;21379;50.962;6.960;2022-12-07T14:57:15;6.60;99.90
35246;DHT22;21379;50.962;6.960;2022-12-07T14:59:43;6.60;99.90
35246;DHT22;21379;50.962;6.960;2022-12-07T15:02:11;6.50;99.90
35246;DHT22;21379;50.962;6.960;2022-12-07T15:04:38;6.50;99.90
35246;DHT22;21379;50.962;6.960;2022-12-07T15:07:10;6.60;99.90
35246;DHT22;21379;50.962;6.960;2022-12-07T15:09:39;6.60;99.90
35246;DHT22;21379;50.962;6.960;2022-12-07T15:12:06;6.60;99.90
35246;DHT22;21379;50.962;6.960;2022-12-07T15:14:33;6.60;99.90
35246;DHT22;21379;50.962;6.960;2022-12-07T15:17:01;6.50;99.90
35246;DHT22;21379;50.962;6.960;2022-12-07T15:19:28;6.50;99.90
35246;DHT22;21379;50.962;6.960;2022-12-07T15:21:55;6.50;99.90
35246;DHT22;21379;50.962;6.960;2022-12-07T15:24:22;6.40;99.90
35246;DHT22;21379;50.962;6.960;2022-12-07T15:26:51;6.50;99.90
35246;DHT22;21379;50.962;6.960;2022-12-07T15:29:21;6.30;99.90
35246;DHT22;21379;50.962;6.960;2022-12-07T15:31:50;6.10;99.90
35246;DHT22;21379;50.962;6.960;2022-12-07T15:34:19;5.90;99.90
35246;DHT22;21379;50.962;6.960;2022-12-07T15:36:46;5.80;99.90
35246;DHT22;21379;50.962;6.960;2022-12-07T15:39:23;5.80;99.90
35246;DHT22;21379;50.962;6.960;2022-12-07T15:41:55;5.70;99.90
35246;DHT22;21379;50.962;6.960;2022-12-07T15:44:31;5.60;99.90
35246;DHT22;21379;50.962;6.960;2022-12-07T15:47:18;5.70;99.90
35246;DHT22;21379;50.962;6.960;2022-12-07T15:49:47;5.50;99.90
35246;DHT22;21379;50.962;6.960;2022-12-07T15:52:20;5.50;99.90
35246;DHT22;21379;50.962;6.960;2022-12-07T15:57:46;5.40;99.90
35246;DHT22;21379;50.962;6.960;2022-12-07T16:00:21;5.40;99.90
35246;DHT22;21379;50.962;6.960;2022-12-07T16:02:48;5.40;99.90
35246;DHT22;21379;50.962;6.960;2022-12-07T16:05:16;5.40;99.90
35246;DHT22;21379;50.962;6.960;2022-12-07T16:07:43;5.30;99.90
35246;DHT22;21379;50.962;6.960;2022-12-07T16:10:11;5.20;99.90
35246;DHT22;21379;50.962;6.960;2022-12-07T16:12:38;5.20;99.90
35246;DHT22;21379;50.962;6.960;2022-12-07T16:15:06;5.30;99.90
35246;DHT22;21379;50.962;6.960;2022-12-07T16:17:33;5.30;99.90
35246;DHT22;21379;50.962;6.960;2022-12-07T16:20:00;5.30;99.90
35246;DHT22;21379;50.962;6.960;2022-12-07T16:22:28;5.40;99.90
35246;DHT22;21379;50.962;6.960;2022-12-07T16:24:55;5.30;99.90
35246;DHT22;21379;50.962;6.960;2022-12-07T16:27:22;5.40;99.90
35246;DHT22;21379;50.962;6.960;2022-12-07T16:29:48;5.40;99.90